createdAt,value
2019-02-27T00:00:50.275Z,26.90
2019-02-27T00:03:19.251Z,30.83
2019-02-27T00:05:48.042Z,30.93
2019-02-27T00:08:16.888Z,32.43
2019-02-27T00:10:45.923Z,32.00
2019-02-27T00:13:14.596Z,28.93
2019-02-27T00:15:43.293Z,23.03
2019-02-27T00:18:14.186Z,18.97
2019-02-27T00:20:43.135Z,30.53
2019-02-27T00:23:11.926Z,34.07
2019-02-27T00:25:40.698Z,26.33
2019-02-27T00:28:10.425Z,27.70
2019-02-27T00:30:39.040Z,31.93
2019-02-27T00:33:08.170Z,25.20
2019-02-27T00:35:38.634Z,21.43
2019-02-27T00:38:07.106Z,34.33
2019-02-27T00:40:38.684Z,28.37
2019-02-27T00:43:07.080Z,23.33
2019-02-27T00:45:39.881Z,25.83
2019-02-27T00:48:06.037Z,26.90
2019-02-27T00:50:38.889Z,32.13
2019-02-27T00:53:04.902Z,32.43
2019-02-27T00:55:38.617Z,33.87
2019-02-27T00:58:03.828Z,27.37
2019-02-27T01:00:32.490Z,31.37
2019-02-27T01:03:01.517Z,53.03
2019-02-27T01:05:30.138Z,24.27
2019-02-27T01:07:58.797Z,23.87
2019-02-27T01:10:27.769Z,20.70
2019-02-27T01:12:58.103Z,20.43
2019-02-27T01:15:27.558Z,19.57
2019-02-27T01:17:57.428Z,19.37
2019-02-27T01:20:26.475Z,19.97
2019-02-27T01:22:56.075Z,18.03
2019-02-27T01:25:24.684Z,18.40
2019-02-27T01:27:53.250Z,27.03
2019-02-27T01:30:23.841Z,13.77
2019-02-27T01:32:52.482Z,35.93
2019-02-27T01:35:21.159Z,26.23
2019-02-27T01:37:49.832Z,20.60
2019-02-27T01:40:18.704Z,21.40
2019-02-27T01:42:47.678Z,25.07
2019-02-27T01:45:20.681Z,25.13
2019-02-27T01:47:46.902Z,31.80
2019-02-27T01:50:27.370Z,21.70
2019-02-27T01:52:56.388Z,13.23
2019-02-27T01:55:25.017Z,26.07
2019-02-27T01:57:54.050Z,14.87
2019-02-27T02:00:23.293Z,14.90
2019-02-27T02:02:52.635Z,22.47
2019-02-27T02:05:26.265Z,16.50
2019-02-27T02:08:13.966Z,13.97
2019-02-27T02:10:41.645Z,23.10
2019-02-27T02:13:15.128Z,25.47
2019-02-27T02:15:47.749Z,19.90
2019-02-27T02:18:37.766Z,17.87
2019-02-27T02:21:21.587Z,21.30
2019-02-27T02:23:58.930Z,15.20
2019-02-27T02:26:42.205Z,16.70
2019-02-27T02:29:28.666Z,31.80
2019-02-27T02:32:00.424Z,30.93
2019-02-27T02:34:40.291Z,43.50
2019-02-27T02:37:39.193Z,25.23
2019-02-27T02:40:13.965Z,27.03
2019-02-27T02:43:03.836Z,23.57
2019-02-27T02:45:44.622Z,19.73
2019-02-27T02:48:32.087Z,18.23
2019-02-27T02:51:28.713Z,21.00
2019-02-27T02:54:05.994Z,22.40
2019-02-27T02:57:04.952Z,27.87
2019-02-27T02:59:52.205Z,23.67
2019-02-27T03:02:33.199Z,29.33
2019-02-27T03:05:36.063Z,24.53
2019-02-27T03:08:21.000Z,21.03
2019-02-27T03:10:56.170Z,19.80
2019-02-27T03:13:45.532Z,17.93
2019-02-27T03:16:32.859Z,11.27
2019-02-27T03:19:07.216Z,13.77
2019-02-27T03:21:45.383Z,15.03
2019-02-27T03:24:27.888Z,18.80
2019-02-27T03:26:59.618Z,12.83
2019-02-27T03:29:52.001Z,17.70
2019-02-27T03:32:23.085Z,24.73
2019-02-27T03:34:57.901Z,14.70
2019-02-27T03:37:38.882Z,15.03
2019-02-27T03:40:11.770Z,21.60
2019-02-27T03:42:49.884Z,25.53
2019-02-27T03:45:21.660Z,24.33
2019-02-27T03:48:02.492Z,19.73
2019-02-27T03:50:49.832Z,24.63
2019-02-27T03:53:19.896Z,27.00
2019-02-27T03:55:57.502Z,19.63
2019-02-27T03:58:38.153Z,15.53
2019-02-27T04:01:30.096Z,9.77
2019-02-27T04:04:04.224Z,18.10
2019-02-27T04:06:35.995Z,10.83
2019-02-27T04:09:08.028Z,14.20
2019-02-27T04:11:41.437Z,10.10
2019-02-27T04:14:26.826Z,12.37
2019-02-27T04:16:55.437Z,11.00
2019-02-27T04:19:24.135Z,18.93
2019-02-27T04:21:53.707Z,20.13
2019-02-27T04:24:23.137Z,12.67
2019-02-27T04:26:53.123Z,17.30
2019-02-27T04:29:21.734Z,13.63
2019-02-27T04:31:50.376Z,8.47
2019-02-27T04:34:18.990Z,10.70
2019-02-27T04:36:47.801Z,9.83
2019-02-27T04:39:16.482Z,12.63
2019-02-27T04:41:45.470Z,12.40
2019-02-27T04:44:14.052Z,10.50
2019-02-27T04:46:42.700Z,15.83
2019-02-27T04:49:11.357Z,14.07
2019-02-27T04:51:40.015Z,11.00
2019-02-27T04:54:08.651Z,14.57
2019-02-27T04:56:37.308Z,12.30
2019-02-27T04:59:05.979Z,12.80
2019-02-27T05:01:36.662Z,14.40
2019-02-27T05:04:05.617Z,7.83
2019-02-27T05:06:34.293Z,11.93
2019-02-27T05:09:03.441Z,7.73
2019-02-27T05:11:32.429Z,9.33
2019-02-27T05:14:01.033Z,10.80
2019-02-27T05:16:29.677Z,9.10
2019-02-27T05:19:00.923Z,10.33
2019-02-27T05:21:29.038Z,10.33
2019-02-27T05:23:57.689Z,13.60
2019-02-27T05:26:27.348Z,5.77
2019-02-27T05:28:56.452Z,9.83
2019-02-27T05:31:25.390Z,10.83
2019-02-27T05:33:54.009Z,8.93
2019-02-27T05:36:22.682Z,11.33
2019-02-27T05:38:51.292Z,14.23
2019-02-27T05:41:19.905Z,16.03
2019-02-27T05:43:48.705Z,15.07
2019-02-27T05:46:17.417Z,10.80
2019-02-27T05:48:46.075Z,15.40
2019-02-27T05:51:15.079Z,13.97
2019-02-27T05:53:43.769Z,12.60
2019-02-27T05:56:15.611Z,10.70
2019-02-27T05:58:42.635Z,9.23
2019-02-27T06:01:11.668Z,24.17
2019-02-27T06:03:40.660Z,7.93
2019-02-27T06:06:11.575Z,9.83
2019-02-27T06:08:39.574Z,7.60
2019-02-27T06:11:08.152Z,14.13
2019-02-27T06:13:37.132Z,20.13
2019-02-27T06:16:08.930Z,5.40
2019-02-27T06:18:36.384Z,8.00
2019-02-27T06:21:06.013Z,17.33
2019-02-27T06:23:35.335Z,20.03
2019-02-27T06:26:05.259Z,11.03
2019-02-27T06:28:33.885Z,10.60
2019-02-27T06:31:03.140Z,14.47
2019-02-27T06:33:31.800Z,15.73
2019-02-27T06:36:01.307Z,7.77
2019-02-27T06:38:29.944Z,14.17
2019-02-27T06:40:59.377Z,11.97
2019-02-27T06:43:28.271Z,9.67
2019-02-27T06:45:56.893Z,18.27
2019-02-27T06:48:31.779Z,9.23
2019-02-27T06:51:02.924Z,18.03
2019-02-27T06:53:36.198Z,8.40
2019-02-27T06:56:06.368Z,12.73
2019-02-27T06:58:36.868Z,8.40
2019-02-27T07:01:09.728Z,13.83
2019-02-27T07:03:39.251Z,15.33
2019-02-27T07:06:10.916Z,18.90
2019-02-27T07:08:41.405Z,12.33
2019-02-27T07:11:11.145Z,8.97
2019-02-27T07:13:41.907Z,12.70
2019-02-27T07:16:12.270Z,9.43
2019-02-27T07:21:32.861Z,11.33
2019-02-27T07:24:01.661Z,8.97
2019-02-27T07:26:31.227Z,5.17
2019-02-27T07:29:01.769Z,9.53
2019-02-27T07:31:32.892Z,10.60
2019-02-27T07:34:06.389Z,7.57
2019-02-27T07:36:38.573Z,6.07
2019-02-27T07:39:09.614Z,10.07
2019-02-27T07:41:41.888Z,9.37
2019-02-27T07:44:11.548Z,9.20
2019-02-27T07:46:59.931Z,7.47
2019-02-27T07:49:30.943Z,9.47
2019-02-27T07:51:58.830Z,9.93
2019-02-27T07:54:28.996Z,9.90
2019-02-27T07:56:57.858Z,7.20
2019-02-27T07:59:26.527Z,7.87
2019-02-27T08:01:55.189Z,5.50
2019-02-27T08:04:23.808Z,7.73
2019-02-27T08:06:52.462Z,8.67
2019-02-27T08:09:21.359Z,6.20
2019-02-27T08:11:49.945Z,6.37
2019-02-27T08:14:18.582Z,6.20
2019-02-27T08:16:48.103Z,5.73
2019-02-27T08:19:16.738Z,7.72
2019-02-27T08:21:45.394Z,8.40
2019-02-27T08:24:14.452Z,6.43
2019-02-27T08:26:43.077Z,5.33
2019-02-27T08:29:11.735Z,8.93
2019-02-27T08:31:40.275Z,5.33
2019-02-27T08:34:08.918Z,5.30
2019-02-27T08:36:37.529Z,9.23
2019-02-27T08:39:06.285Z,6.63
2019-02-27T08:41:34.937Z,7.63
2019-02-27T08:44:03.564Z,11.17
2019-02-27T08:46:33.984Z,6.00
2019-02-27T08:49:02.471Z,11.77
2019-02-27T08:51:31.099Z,7.43
2019-02-27T08:53:59.919Z,9.90
2019-02-27T08:56:30.067Z,8.60
2019-02-27T08:58:58.816Z,8.23
2019-02-27T09:01:27.449Z,4.83
2019-02-27T09:03:56.990Z,9.98
2019-02-27T09:06:27.539Z,5.83
2019-02-27T09:08:55.934Z,5.87
2019-02-27T09:11:24.699Z,6.60
2019-02-27T09:13:53.354Z,4.90
2019-02-27T09:16:23.040Z,9.20
2019-02-27T09:18:52.274Z,5.30
2019-02-27T09:21:20.933Z,8.93
2019-02-27T09:23:49.538Z,6.57
2019-02-27T09:26:18.102Z,5.10
2019-02-27T09:28:46.758Z,4.60
2019-02-27T09:31:15.417Z,10.93
2019-02-27T09:33:44.035Z,6.27
2019-02-27T09:36:12.704Z,8.37
2019-02-27T09:38:41.313Z,4.50
2019-02-27T09:41:12.388Z,8.97
2019-02-27T09:43:40.214Z,9.25
2019-02-27T09:46:09.152Z,5.35
2019-02-27T09:48:37.770Z,7.55
2019-02-27T09:51:06.430Z,5.75
2019-02-27T09:53:36.801Z,5.87
2019-02-27T09:56:05.669Z,4.67
2019-02-27T09:58:34.351Z,4.37
2019-02-27T10:01:14.488Z,4.08
2019-02-27T10:03:43.160Z,4.17
2019-02-27T10:06:11.786Z,5.62
2019-02-27T10:08:40.431Z,3.40
2019-02-27T10:11:08.971Z,5.97
2019-02-27T10:13:38.515Z,5.90
2019-02-27T10:16:07.248Z,3.85
2019-02-27T10:18:36.892Z,7.03
2019-02-27T10:21:05.540Z,9.73
2019-02-27T10:23:34.483Z,12.00
2019-02-27T10:26:03.065Z,8.28
2019-02-27T10:28:31.682Z,4.53
2019-02-27T10:31:00.336Z,5.78
2019-02-27T10:33:28.998Z,4.20
2019-02-27T10:35:57.654Z,3.87
2019-02-27T10:38:27.282Z,6.17
2019-02-27T10:40:55.917Z,5.42
2019-02-27T10:43:24.569Z,4.60
2019-02-27T10:45:54.549Z,4.47
2019-02-27T10:48:23.204Z,3.90
2019-02-27T10:50:51.855Z,3.87
2019-02-27T10:53:20.505Z,6.45
2019-02-27T10:55:49.997Z,4.42
2019-02-27T10:58:18.671Z,4.40
2019-02-27T11:00:48.745Z,4.85
2019-02-27T11:03:17.404Z,6.05
2019-02-27T11:05:46.031Z,8.63
2019-02-27T11:08:14.692Z,5.37
2019-02-27T11:10:43.354Z,5.10
2019-02-27T11:13:12.025Z,8.18
2019-02-27T11:15:41.415Z,7.87
2019-02-27T11:18:10.951Z,8.43
2019-02-27T11:20:39.606Z,12.88
2019-02-27T11:23:08.231Z,10.63
2019-02-27T11:25:37.097Z,12.40
2019-02-27T11:28:05.652Z,14.95
2019-02-27T11:30:38.849Z,7.42
2019-02-27T11:33:07.459Z,7.42
2019-02-27T11:35:36.469Z,8.75
2019-02-27T11:38:05.521Z,4.70
2019-02-27T11:40:34.170Z,6.40
2019-02-27T11:43:06.577Z,9.55
2019-02-27T11:45:33.145Z,11.15
2019-02-27T11:48:01.806Z,6.90
2019-02-27T11:50:31.449Z,7.40
2019-02-27T11:53:02.794Z,9.38
2019-02-27T11:55:30.881Z,5.47
2019-02-27T11:58:04.232Z,6.60
2019-02-27T12:00:31.378Z,3.85
2019-02-27T12:03:00.047Z,6.47
2019-02-27T12:05:33.842Z,4.87
2019-02-27T12:07:59.458Z,3.85
2019-02-27T12:10:32.604Z,3.92
2019-02-27T12:13:01.795Z,3.50
2019-02-27T12:15:30.609Z,6.50
2019-02-27T12:18:00.557Z,4.60
2019-02-27T12:20:29.943Z,5.42
2019-02-27T12:22:58.565Z,4.92
2019-02-27T12:25:29.847Z,5.05
2019-02-27T12:27:57.524Z,7.33
2019-02-27T12:30:30.983Z,6.58
2019-02-27T12:32:59.637Z,4.85
2019-02-27T12:35:33.555Z,7.55
2019-02-27T12:38:07.154Z,4.78
2019-02-27T12:40:32.845Z,7.42
2019-02-27T12:43:01.884Z,4.20
2019-02-27T12:45:30.922Z,7.37
2019-02-27T12:48:00.139Z,17.62
2019-02-27T12:50:31.092Z,12.90
2019-02-27T12:53:00.016Z,8.65
2019-02-27T12:55:28.622Z,9.73
2019-02-27T12:57:57.296Z,10.48
2019-02-27T13:00:28.230Z,9.00
2019-02-27T13:02:58.839Z,9.03
2019-02-27T13:05:27.622Z,9.25
2019-02-27T13:07:56.153Z,6.97
2019-02-27T13:10:27.079Z,6.12
2019-02-27T13:12:55.714Z,11.88
2019-02-27T13:15:26.481Z,6.65
2019-02-27T13:17:57.674Z,5.35
2019-02-27T13:20:32.633Z,10.00
2019-02-27T13:23:04.218Z,14.50
2019-02-27T13:25:31.598Z,7.78
2019-02-27T13:28:00.188Z,9.25
2019-02-27T13:30:29.417Z,10.55
2019-02-27T13:33:00.801Z,8.73
2019-02-27T13:35:29.062Z,7.35
2019-02-27T13:37:57.724Z,9.38
2019-02-27T13:40:35.378Z,9.28
2019-02-27T13:43:01.247Z,7.08
2019-02-27T13:45:31.417Z,5.67
2019-02-27T13:48:04.844Z,7.30
2019-02-27T13:50:30.380Z,15.83
2019-02-27T13:52:59.005Z,9.70
2019-02-27T13:55:28.648Z,10.20
2019-02-27T13:57:59.303Z,11.83
2019-02-27T14:00:32.451Z,13.28
2019-02-27T14:03:01.105Z,13.22
2019-02-27T14:05:32.419Z,16.73
2019-02-27T14:08:00.143Z,16.60
2019-02-27T14:10:30.618Z,20.90
2019-02-27T14:12:59.367Z,25.62
2019-02-27T14:15:31.390Z,27.42
2019-02-27T14:17:58.700Z,23.62
2019-02-27T14:20:28.965Z,22.40
2019-02-27T14:22:58.790Z,24.07
2019-02-27T14:25:33.147Z,21.85
2019-02-27T14:28:02.445Z,23.07
2019-02-27T14:30:35.551Z,21.05
2019-02-27T14:33:04.445Z,18.30
2019-02-27T14:35:36.272Z,18.98
2019-02-27T14:38:03.376Z,16.82
2019-02-27T14:40:31.994Z,22.20
2019-02-27T14:43:01.154Z,20.88
2019-02-27T14:45:29.882Z,21.90
2019-02-27T14:47:59.679Z,15.15
2019-02-27T14:50:33.477Z,20.57
2019-02-27T14:52:58.788Z,16.30
2019-02-27T14:55:27.406Z,12.33
2019-02-27T14:57:56.058Z,12.15
2019-02-27T15:00:33.171Z,16.15
2019-02-27T15:03:01.791Z,14.83
2019-02-27T15:05:30.750Z,14.00
2019-02-27T15:07:59.623Z,16.15
2019-02-27T15:10:28.269Z,17.87
2019-02-27T15:12:56.911Z,20.05
2019-02-27T15:15:30.220Z,19.37
2019-02-27T15:17:58.819Z,21.05
2019-02-27T15:20:31.051Z,18.07
2019-02-27T15:22:59.709Z,18.30
2019-02-27T15:25:28.328Z,21.85
2019-02-27T15:27:58.848Z,20.43
2019-02-27T15:30:32.504Z,21.62
2019-02-27T15:33:04.366Z,19.77
2019-02-27T15:35:31.455Z,15.30
2019-02-27T15:38:00.253Z,24.82
2019-02-27T15:40:30.240Z,19.62
2019-02-27T15:42:59.121Z,22.20
2019-02-27T15:45:28.612Z,20.97
2019-02-27T15:47:57.199Z,19.90
2019-02-27T15:50:31.110Z,21.65
2019-02-27T15:52:59.774Z,19.35
2019-02-27T15:55:32.848Z,27.50
2019-02-27T15:57:58.721Z,25.27
2019-02-27T16:00:27.952Z,19.55
2019-02-27T16:02:56.600Z,20.72
2019-02-27T16:05:30.205Z,18.87
2019-02-27T16:07:55.501Z,23.27
2019-02-27T16:10:28.913Z,17.07
2019-02-27T16:13:01.033Z,19.60
2019-02-27T16:15:29.082Z,19.30
2019-02-27T16:17:57.690Z,35.55
2019-02-27T16:20:27.410Z,114.60
2019-02-27T16:22:55.958Z,73.50
2019-02-27T16:25:26.719Z,69.35
2019-02-27T16:27:55.348Z,44.08
2019-02-27T16:30:33.004Z,68.30
2019-02-27T16:33:01.790Z,31.20
2019-02-27T16:35:30.403Z,30.32
2019-02-27T16:37:59.076Z,18.10
2019-02-27T16:40:29.821Z,14.45
2019-02-27T16:42:58.477Z,15.48
2019-02-27T16:45:32.506Z,15.13
2019-02-27T16:47:59.562Z,13.30
2019-02-27T16:50:28.368Z,21.85
2019-02-27T16:52:57.133Z,13.30
2019-02-27T16:55:26.754Z,14.18
2019-02-27T16:57:57.508Z,20.12
2019-02-27T17:00:31.610Z,16.85
2019-02-27T17:03:00.257Z,21.07
2019-02-27T17:05:29.054Z,13.20
2019-02-27T17:08:02.018Z,13.88
2019-02-27T17:10:33.616Z,17.37
2019-02-27T17:13:02.258Z,20.10
2019-02-27T17:15:34.750Z,15.30
2019-02-27T17:18:01.373Z,19.27
2019-02-27T17:20:30.235Z,15.83
2019-02-27T17:22:58.865Z,15.98
2019-02-27T17:25:29.968Z,15.53
2019-02-27T17:27:58.148Z,12.80
2019-02-27T17:30:37.781Z,13.50
2019-02-27T17:33:05.279Z,20.60
2019-02-27T17:35:34.206Z,10.53
2019-02-27T17:38:03.259Z,14.90
2019-02-27T17:40:36.300Z,10.60
2019-02-27T17:43:02.213Z,12.90
2019-02-27T17:45:30.914Z,15.50
2019-02-27T17:47:59.516Z,19.15
2019-02-27T17:50:30.969Z,12.28
2019-02-27T17:52:58.489Z,10.55
2019-02-27T17:55:27.123Z,12.20
2019-02-27T17:57:58.354Z,13.32
2019-02-27T18:00:37.934Z,11.30
2019-02-27T18:03:06.547Z,15.18
2019-02-27T18:05:35.218Z,19.82
2019-02-27T18:08:03.852Z,19.52
2019-02-27T18:10:37.257Z,12.80
2019-02-27T18:13:02.783Z,18.60
2019-02-27T18:15:31.444Z,17.20
2019-02-27T18:18:00.067Z,16.47
2019-02-27T18:20:28.775Z,8.50
2019-02-27T18:22:57.414Z,14.50
2019-02-27T18:25:26.594Z,15.85
2019-02-27T18:27:58.525Z,9.75
2019-02-27T18:30:25.508Z,15.00
2019-02-27T18:32:54.176Z,18.65
2019-02-27T18:35:22.843Z,9.40
2019-02-27T18:37:54.285Z,17.17
2019-02-27T18:40:22.165Z,12.93
2019-02-27T18:42:55.255Z,18.65
2019-02-27T18:45:23.849Z,22.73
2019-02-27T18:47:52.522Z,18.75
2019-02-27T18:50:21.074Z,19.05
2019-02-27T18:52:50.092Z,18.52
2019-02-27T18:55:18.755Z,17.77
2019-02-27T18:57:47.659Z,12.05
2019-02-27T19:00:21.777Z,16.20
2019-02-27T19:02:55.467Z,19.77
2019-02-27T19:05:24.424Z,16.85
2019-02-27T19:07:54.762Z,13.67
2019-02-27T19:10:23.482Z,17.93
2019-02-27T19:12:52.201Z,21.77
2019-02-27T19:15:22.866Z,23.65
2019-02-27T19:17:51.660Z,17.45
2019-02-27T19:20:26.207Z,17.13
2019-02-27T19:22:54.837Z,17.47
2019-02-27T19:25:23.560Z,21.13
2019-02-27T19:27:52.563Z,11.97
2019-02-27T19:30:21.227Z,14.25
2019-02-27T19:32:49.843Z,24.67
2019-02-27T19:35:21.522Z,23.00
2019-02-27T19:37:48.806Z,41.97
2019-02-27T19:40:19.089Z,40.40
2019-02-27T19:42:53.794Z,32.23
2019-02-27T19:45:22.450Z,35.13
2019-02-27T19:47:54.809Z,35.43
2019-02-27T19:50:21.412Z,38.47
2019-02-27T19:52:50.024Z,31.47
2019-02-27T19:55:20.214Z,36.63
2019-02-27T19:57:48.857Z,25.85
2019-02-27T20:00:26.119Z,22.53
2019-02-27T20:02:57.448Z,23.40
2019-02-27T20:05:25.166Z,16.20
2019-02-27T20:07:54.553Z,18.30
2019-02-27T20:10:23.183Z,27.98
2019-02-27T20:12:53.680Z,36.55
2019-02-27T20:15:23.529Z,20.77
2019-02-27T20:17:52.240Z,34.87
2019-02-27T20:20:22.140Z,19.90
2019-02-27T20:22:53.676Z,29.05
2019-02-27T20:25:24.166Z,34.27
2019-02-27T20:27:52.801Z,37.35
2019-02-27T20:30:22.462Z,45.97
2019-02-27T20:32:51.080Z,37.13
2019-02-27T20:35:20.760Z,60.57
2019-02-27T20:37:50.553Z,57.23
2019-02-27T20:40:20.281Z,60.30
2019-02-27T20:42:50.445Z,38.33
2019-02-27T20:45:21.510Z,55.17
2019-02-27T20:47:51.320Z,48.83
2019-02-27T20:50:39.317Z,30.15
2019-02-27T20:53:09.572Z,24.37
2019-02-27T20:55:41.358Z,28.27
2019-02-27T20:58:10.021Z,23.50
2019-02-27T21:00:39.046Z,35.00
2019-02-27T21:03:07.699Z,29.13
2019-02-27T21:05:36.720Z,29.90
2019-02-27T21:08:05.686Z,22.10
2019-02-27T21:10:36.251Z,20.67
2019-02-27T21:13:05.410Z,23.70
2019-02-27T21:15:34.621Z,26.60
2019-02-27T21:18:04.667Z,42.50
2019-02-27T21:20:33.753Z,23.52
2019-02-27T21:23:04.737Z,34.78
2019-02-27T21:25:35.177Z,46.13
2019-02-27T21:28:07.069Z,56.92
2019-02-27T21:30:34.765Z,55.77
2019-02-27T21:33:08.193Z,56.47
2019-02-27T21:35:35.448Z,67.30
2019-02-27T21:38:05.849Z,47.07
2019-02-27T21:40:36.230Z,46.10
2019-02-27T21:43:05.419Z,45.07
2019-02-27T21:45:37.133Z,25.00
2019-02-27T21:48:04.332Z,51.47
2019-02-27T21:50:32.991Z,44.17
2019-02-27T21:53:01.779Z,52.77
2019-02-27T21:55:30.464Z,39.75
2019-02-27T21:57:59.209Z,38.40
2019-02-27T22:00:35.302Z,40.40
2019-02-27T22:03:03.621Z,31.70
2019-02-27T22:05:30.389Z,31.68
2019-02-27T22:07:59.054Z,52.78
2019-02-27T22:10:27.783Z,35.65
2019-02-27T22:12:56.907Z,28.83
2019-02-27T22:15:30.857Z,24.27
2019-02-27T22:17:59.588Z,30.95
2019-02-27T22:20:28.247Z,27.20
2019-02-27T22:22:58.733Z,30.27
2019-02-27T22:25:30.469Z,20.53
2019-02-27T22:27:58.547Z,15.28
2019-02-27T22:30:28.005Z,30.30
2019-02-27T22:32:56.808Z,16.62
2019-02-27T22:35:25.495Z,38.08
2019-02-27T22:37:54.282Z,22.82
2019-02-27T22:40:23.930Z,36.43
2019-02-27T22:42:53.799Z,38.05
2019-02-27T22:45:23.467Z,29.80
2019-02-27T22:47:53.996Z,22.93
2019-02-27T22:50:22.451Z,28.10
2019-02-27T22:52:54.623Z,38.20
2019-02-27T22:55:21.510Z,27.25
2019-02-27T22:57:50.178Z,29.05
2019-02-27T23:00:55.884Z,22.90
2019-02-27T23:03:27.669Z,48.73
2019-02-27T23:05:56.303Z,31.97
2019-02-27T23:08:24.966Z,31.90
2019-02-27T23:10:55.817Z,27.98
2019-02-27T23:13:23.985Z,29.35
2019-02-27T23:15:58.166Z,37.93
2019-02-27T23:18:23.571Z,26.17
2019-02-27T23:20:52.576Z,32.45
2019-02-27T23:23:24.489Z,44.07
2019-02-27T23:25:53.452Z,29.97
2019-02-27T23:28:22.238Z,47.30
2019-02-27T23:30:50.924Z,29.13
2019-02-27T23:33:19.651Z,54.75
2019-02-27T23:35:50.175Z,27.27
2019-02-27T23:38:18.816Z,41.53
2019-02-27T23:40:48.965Z,35.68
2019-02-27T23:43:19.653Z,40.67
2019-02-27T23:45:48.263Z,33.70
2019-02-27T23:48:17.045Z,50.80
2019-02-27T23:50:45.784Z,50.07
2019-02-27T23:53:15.193Z,27.58
2019-02-27T23:55:45.397Z,41.37
2019-02-27T23:58:16.860Z,35.60
